sensor_id;sensor_type;location;lat;lon;timestamp;P1;durP1;ratioP1;P2;durP2;ratioP2
71360;SDS011;59166;48.908;1.870;2023-07-30T00:03:29;8.03;;;1.90;;
71360;SDS011;59166;48.908;1.870;2023-07-30T00:08:29;7.97;;;1.90;;
71360;SDS011;59166;48.908;1.870;2023-07-30T00:13:30;7.80;;;1.40;;
71360;SDS011;59166;48.908;1.870;2023-07-30T00:18:32;5.27;;;1.50;;
71360;SDS011;59166;48.908;1.870;2023-07-30T00:23:33;8.30;;;1.65;;
71360;SDS011;59166;48.908;1.870;2023-07-30T00:28:33;7.37;;;1.50;;
71360;SDS011;59166;48.908;1.870;2023-07-30T00:33:35;8.27;;;1.70;;
71360;SDS011;59166;48.908;1.870;2023-07-30T00:38:36;6.25;;;1.55;;
71360;SDS011;59166;48.908;1.870;2023-07-30T00:43:36;6.60;;;1.50;;
71360;SDS011;59166;48.908;1.870;2023-07-30T00:48:38;8.45;;;1.60;;
71360;SDS011;59166;48.908;1.870;2023-07-30T00:53:39;6.10;;;1.33;;
71360;SDS011;59166;48.908;1.870;2023-07-30T00:58:40;8.18;;;1.48;;
71360;SDS011;59166;48.908;1.870;2023-07-30T01:03:42;8.17;;;1.40;;
71360;SDS011;59166;48.908;1.870;2023-07-30T01:08:43;6.68;;;1.48;;
71360;SDS011;59166;48.908;1.870;2023-07-30T01:13:43;7.23;;;1.50;;
71360;SDS011;59166;48.908;1.870;2023-07-30T01:18:45;4.53;;;1.40;;
71360;SDS011;59166;48.908;1.870;2023-07-30T01:23:47;6.50;;;1.40;;
71360;SDS011;59166;48.908;1.870;2023-07-30T01:28:49;6.97;;;1.50;;
71360;SDS011;59166;48.908;1.870;2023-07-30T01:33:54;6.50;;;1.48;;
71360;SDS011;59166;48.908;1.870;2023-07-30T01:38:57;5.93;;;1.43;;
71360;SDS011;59166;48.908;1.870;2023-07-30T01:43:59;7.65;;;1.48;;
71360;SDS011;59166;48.908;1.870;2023-07-30T01:49:00;7.30;;;1.50;;
71360;SDS011;59166;48.908;1.870;2023-07-30T01:54:02;6.93;;;1.88;;
71360;SDS011;59166;48.908;1.870;2023-07-30T01:59:03;10.47;;;1.70;;
71360;SDS011;59166;48.908;1.870;2023-07-30T02:04:03;8.90;;;1.70;;
71360;SDS011;59166;48.908;1.870;2023-07-30T02:09:05;8.43;;;1.73;;
71360;SDS011;59166;48.908;1.870;2023-07-30T02:14:06;8.57;;;1.80;;
71360;SDS011;59166;48.908;1.870;2023-07-30T02:19:07;10.23;;;1.77;;
71360;SDS011;59166;48.908;1.870;2023-07-30T02:24:09;8.00;;;1.80;;
71360;SDS011;59166;48.908;1.870;2023-07-30T02:29:10;10.27;;;1.90;;
71360;SDS011;59166;48.908;1.870;2023-07-30T02:34:11;8.13;;;2.00;;
71360;SDS011;59166;48.908;1.870;2023-07-30T02:39:13;11.25;;;2.17;;
71360;SDS011;59166;48.908;1.870;2023-07-30T02:44:13;6.93;;;1.77;;
71360;SDS011;59166;48.908;1.870;2023-07-30T02:49:14;10.95;;;2.13;;
71360;SDS011;59166;48.908;1.870;2023-07-30T02:54:16;11.57;;;2.00;;
71360;SDS011;59166;48.908;1.870;2023-07-30T02:59:17;10.98;;;1.90;;
71360;SDS011;59166;48.908;1.870;2023-07-30T03:04:17;12.90;;;2.10;;
71360;SDS011;59166;48.908;1.870;2023-07-30T03:09:19;10.93;;;1.87;;
71360;SDS011;59166;48.908;1.870;2023-07-30T03:14:20;11.02;;;1.88;;
71360;SDS011;59166;48.908;1.870;2023-07-30T03:19:20;8.60;;;1.80;;
71360;SDS011;59166;48.908;1.870;2023-07-30T03:24:22;10.80;;;2.10;;
71360;SDS011;59166;48.908;1.870;2023-07-30T03:29:23;10.67;;;2.13;;
71360;SDS011;59166;48.908;1.870;2023-07-30T03:34:24;12.20;;;2.03;;
71360;SDS011;59166;48.908;1.870;2023-07-30T03:39:26;13.57;;;2.17;;
71360;SDS011;59166;48.908;1.870;2023-07-30T03:44:26;12.27;;;2.07;;
71360;SDS011;59166;48.908;1.870;2023-07-30T03:49:27;9.70;;;1.83;;
71360;SDS011;59166;48.908;1.870;2023-07-30T03:54:29;13.30;;;2.20;;
71360;SDS011;59166;48.908;1.870;2023-07-30T03:59:29;13.27;;;2.20;;
71360;SDS011;59166;48.908;1.870;2023-07-30T04:04:30;10.97;;;2.27;;
71360;SDS011;59166;48.908;1.870;2023-07-30T04:09:32;12.37;;;2.40;;
71360;SDS011;59166;48.908;1.870;2023-07-30T04:14:32;11.90;;;2.03;;
71360;SDS011;59166;48.908;1.870;2023-07-30T04:19:33;11.37;;;2.47;;
71360;SDS011;59166;48.908;1.870;2023-07-30T04:24:35;10.47;;;2.33;;
71360;SDS011;59166;48.908;1.870;2023-07-30T04:29:36;12.40;;;2.00;;
71360;SDS011;59166;48.908;1.870;2023-07-30T04:34:36;8.20;;;2.03;;
71360;SDS011;59166;48.908;1.870;2023-07-30T04:39:38;11.65;;;1.90;;
71360;SDS011;59166;48.908;1.870;2023-07-30T04:44:39;10.65;;;2.08;;
71360;SDS011;59166;48.908;1.870;2023-07-30T04:49:40;12.10;;;2.23;;
71360;SDS011;59166;48.908;1.870;2023-07-30T04:54:42;9.90;;;2.03;;
71360;SDS011;59166;48.908;1.870;2023-07-30T04:59:42;9.45;;;1.65;;
71360;SDS011;59166;48.908;1.870;2023-07-30T05:04:43;11.07;;;1.90;;
71360;SDS011;59166;48.908;1.870;2023-07-30T05:09:45;9.50;;;1.92;;
71360;SDS011;59166;48.908;1.870;2023-07-30T05:14:46;9.27;;;1.80;;
71360;SDS011;59166;48.908;1.870;2023-07-30T05:19:47;9.90;;;1.88;;
71360;SDS011;59166;48.908;1.870;2023-07-30T05:24:49;11.47;;;1.93;;
71360;SDS011;59166;48.908;1.870;2023-07-30T05:29:49;11.40;;;2.10;;
71360;SDS011;59166;48.908;1.870;2023-07-30T05:34:50;10.73;;;2.50;;
71360;SDS011;59166;48.908;1.870;2023-07-30T05:39:52;12.77;;;2.27;;
71360;SDS011;59166;48.908;1.870;2023-07-30T05:44:52;13.80;;;2.35;;
71360;SDS011;59166;48.908;1.870;2023-07-30T05:49:53;8.67;;;2.03;;
71360;SDS011;59166;48.908;1.870;2023-07-30T05:54:55;13.73;;;2.50;;
71360;SDS011;59166;48.908;1.870;2023-07-30T05:59:56;10.30;;;2.42;;
71360;SDS011;59166;48.908;1.870;2023-07-30T06:04:56;10.53;;;2.50;;
71360;SDS011;59166;48.908;1.870;2023-07-30T06:09:58;11.40;;;2.87;;
71360;SDS011;59166;48.908;1.870;2023-07-30T06:14:59;13.98;;;2.70;;
71360;SDS011;59166;48.908;1.870;2023-07-30T06:19:59;8.10;;;2.23;;
71360;SDS011;59166;48.908;1.870;2023-07-30T06:25:02;13.82;;;2.60;;
71360;SDS011;59166;48.908;1.870;2023-07-30T06:30:03;10.30;;;2.40;;
71360;SDS011;59166;48.908;1.870;2023-07-30T06:35:05;11.27;;;2.10;;
71360;SDS011;59166;48.908;1.870;2023-07-30T06:40:08;9.73;;;2.17;;
71360;SDS011;59166;48.908;1.870;2023-07-30T06:45:09;10.63;;;2.60;;
71360;SDS011;59166;48.908;1.870;2023-07-30T06:50:10;10.67;;;2.30;;
71360;SDS011;59166;48.908;1.870;2023-07-30T06:55:12;11.33;;;2.40;;
71360;SDS011;59166;48.908;1.870;2023-07-30T07:00:13;8.13;;;2.25;;
71360;SDS011;59166;48.908;1.870;2023-07-30T07:05:14;12.00;;;2.53;;
71360;SDS011;59166;48.908;1.870;2023-07-30T07:10:17;10.20;;;2.10;;
71360;SDS011;59166;48.908;1.870;2023-07-30T07:15:18;9.60;;;2.00;;
71360;SDS011;59166;48.908;1.870;2023-07-30T07:20:19;9.13;;;2.25;;
71360;SDS011;59166;48.908;1.870;2023-07-30T07:25:21;10.40;;;2.70;;
71360;SDS011;59166;48.908;1.870;2023-07-30T07:30:22;12.10;;;2.22;;
71360;SDS011;59166;48.908;1.870;2023-07-30T07:35:23;11.27;;;2.33;;
71360;SDS011;59166;48.908;1.870;2023-07-30T07:40:25;8.30;;;2.13;;
71360;SDS011;59166;48.908;1.870;2023-07-30T07:45:26;11.30;;;2.40;;
71360;SDS011;59166;48.908;1.870;2023-07-30T07:50:26;9.83;;;2.07;;
71360;SDS011;59166;48.908;1.870;2023-07-30T07:55:29;8.13;;;2.03;;
71360;SDS011;59166;48.908;1.870;2023-07-30T08:00:29;9.53;;;2.10;;
71360;SDS011;59166;48.908;1.870;2023-07-30T08:05:30;9.07;;;2.13;;
71360;SDS011;59166;48.908;1.870;2023-07-30T08:10:33;9.77;;;2.40;;
71360;SDS011;59166;48.908;1.870;2023-07-30T08:15:38;9.55;;;2.20;;
71360;SDS011;59166;48.908;1.870;2023-07-30T08:20:39;9.48;;;2.15;;
71360;SDS011;59166;48.908;1.870;2023-07-30T08:25:41;8.73;;;2.37;;
71360;SDS011;59166;48.908;1.870;2023-07-30T08:30:42;9.90;;;2.10;;
71360;SDS011;59166;48.908;1.870;2023-07-30T08:35:43;9.32;;;2.10;;
71360;SDS011;59166;48.908;1.870;2023-07-30T08:40:45;9.97;;;2.23;;
71360;SDS011;59166;48.908;1.870;2023-07-30T08:45:46;8.85;;;2.42;;
71360;SDS011;59166;48.908;1.870;2023-07-30T08:50:47;18.33;;;2.90;;
71360;SDS011;59166;48.908;1.870;2023-07-30T08:55:51;10.38;;;2.30;;
71360;SDS011;59166;48.908;1.870;2023-07-30T09:00:55;12.63;;;2.42;;
71360;SDS011;59166;48.908;1.870;2023-07-30T09:05:58;8.37;;;2.10;;
71360;SDS011;59166;48.908;1.870;2023-07-30T09:11:07;8.52;;;2.00;;
71360;SDS011;59166;48.908;1.870;2023-07-30T09:16:09;9.98;;;2.40;;
71360;SDS011;59166;48.908;1.870;2023-07-30T09:21:10;8.00;;;2.10;;
71360;SDS011;59166;48.908;1.870;2023-07-30T09:26:13;10.90;;;2.33;;
71360;SDS011;59166;48.908;1.870;2023-07-30T09:31:14;7.60;;;1.70;;
71360;SDS011;59166;48.908;1.870;2023-07-30T09:36:15;5.20;;;1.43;;
71360;SDS011;59166;48.908;1.870;2023-07-30T09:41:20;7.90;;;1.90;;
71360;SDS011;59166;48.908;1.870;2023-07-30T09:46:21;8.35;;;2.10;;
71360;SDS011;59166;48.908;1.870;2023-07-30T09:51:22;7.60;;;1.77;;
71360;SDS011;59166;48.908;1.870;2023-07-30T09:56:25;9.50;;;2.40;;
71360;SDS011;59166;48.908;1.870;2023-07-30T10:01:26;7.45;;;2.05;;
71360;SDS011;59166;48.908;1.870;2023-07-30T10:06:30;8.00;;;1.93;;
71360;SDS011;59166;48.908;1.870;2023-07-30T10:11:33;7.97;;;1.92;;
71360;SDS011;59166;48.908;1.870;2023-07-30T10:16:36;6.65;;;1.85;;
71360;SDS011;59166;48.908;1.870;2023-07-30T10:21:37;9.40;;;1.80;;
71360;SDS011;59166;48.908;1.870;2023-07-30T10:26:44;7.25;;;1.70;;
71360;SDS011;59166;48.908;1.870;2023-07-30T10:31:48;9.13;;;2.28;;
71360;SDS011;59166;48.908;1.870;2023-07-30T10:36:52;6.57;;;1.53;;
71360;SDS011;59166;48.908;1.870;2023-07-30T10:41:56;5.97;;;1.67;;
71360;SDS011;59166;48.908;1.870;2023-07-30T10:46:58;5.78;;;1.75;;
71360;SDS011;59166;48.908;1.870;2023-07-30T10:52:01;6.95;;;1.90;;
71360;SDS011;59166;48.908;1.870;2023-07-30T10:57:03;6.57;;;1.70;;
71360;SDS011;59166;48.908;1.870;2023-07-30T11:02:05;7.65;;;1.80;;
71360;SDS011;59166;48.908;1.870;2023-07-30T11:07:06;7.93;;;1.70;;
71360;SDS011;59166;48.908;1.870;2023-07-30T11:12:08;7.53;;;1.80;;
71360;SDS011;59166;48.908;1.870;2023-07-30T11:17:09;8.02;;;1.65;;
71360;SDS011;59166;48.908;1.870;2023-07-30T11:22:10;7.93;;;1.80;;
71360;SDS011;59166;48.908;1.870;2023-07-30T11:27:12;7.47;;;1.80;;
71360;SDS011;59166;48.908;1.870;2023-07-30T11:32:14;5.30;;;1.60;;
71360;SDS011;59166;48.908;1.870;2023-07-30T11:37:15;5.13;;;1.50;;
71360;SDS011;59166;48.908;1.870;2023-07-30T11:42:17;8.48;;;2.10;;
71360;SDS011;59166;48.908;1.870;2023-07-30T11:47:20;8.43;;;2.03;;
71360;SDS011;59166;48.908;1.870;2023-07-30T11:52:22;6.03;;;1.85;;
71360;SDS011;59166;48.908;1.870;2023-07-30T11:57:24;9.02;;;2.20;;
71360;SDS011;59166;48.908;1.870;2023-07-30T12:02:33;10.07;;;2.03;;
71360;SDS011;59166;48.908;1.870;2023-07-30T12:07:34;8.20;;;1.88;;
71360;SDS011;59166;48.908;1.870;2023-07-30T12:12:44;7.63;;;1.98;;
71360;SDS011;59166;48.908;1.870;2023-07-30T12:17:46;7.77;;;2.10;;
71360;SDS011;59166;48.908;1.870;2023-07-30T12:22:46;5.43;;;1.70;;
71360;SDS011;59166;48.908;1.870;2023-07-30T12:27:49;9.17;;;2.60;;
71360;SDS011;59166;48.908;1.870;2023-07-30T12:32:50;7.85;;;2.28;;
71360;SDS011;59166;48.908;1.870;2023-07-30T12:37:51;9.90;;;2.63;;
71360;SDS011;59166;48.908;1.870;2023-07-30T12:42:53;7.73;;;2.50;;
71360;SDS011;59166;48.908;1.870;2023-07-30T12:47:54;9.13;;;2.28;;
71360;SDS011;59166;48.908;1.870;2023-07-30T12:52:55;8.90;;;2.23;;
71360;SDS011;59166;48.908;1.870;2023-07-30T12:57:57;8.77;;;2.30;;
71360;SDS011;59166;48.908;1.870;2023-07-30T13:02:58;7.03;;;1.95;;
71360;SDS011;59166;48.908;1.870;2023-07-30T13:07:59;8.90;;;2.20;;
71360;SDS011;59166;48.908;1.870;2023-07-30T13:13:01;7.65;;;2.03;;
71360;SDS011;59166;48.908;1.870;2023-07-30T13:18:02;9.60;;;2.30;;
71360;SDS011;59166;48.908;1.870;2023-07-30T13:23:03;8.20;;;2.15;;
71360;SDS011;59166;48.908;1.870;2023-07-30T13:28:06;8.77;;;2.58;;
71360;SDS011;59166;48.908;1.870;2023-07-30T13:33:06;9.00;;;2.23;;
71360;SDS011;59166;48.908;1.870;2023-07-30T13:38:07;8.38;;;2.30;;
71360;SDS011;59166;48.908;1.870;2023-07-30T13:43:10;9.33;;;2.20;;
71360;SDS011;59166;48.908;1.870;2023-07-30T13:48:10;9.30;;;2.45;;
71360;SDS011;59166;48.908;1.870;2023-07-30T13:53:11;10.20;;;2.65;;
71360;SDS011;59166;48.908;1.870;2023-07-30T13:58:14;9.23;;;2.27;;
71360;SDS011;59166;48.908;1.870;2023-07-30T14:03:14;7.20;;;2.05;;
71360;SDS011;59166;48.908;1.870;2023-07-30T14:08:15;10.10;;;2.50;;
71360;SDS011;59166;48.908;1.870;2023-07-30T14:13:18;9.02;;;2.60;;
71360;SDS011;59166;48.908;1.870;2023-07-30T14:18:18;8.90;;;2.30;;
71360;SDS011;59166;48.908;1.870;2023-07-30T14:23:19;8.57;;;2.00;;
71360;SDS011;59166;48.908;1.870;2023-07-30T14:28:21;8.35;;;2.20;;
71360;SDS011;59166;48.908;1.870;2023-07-30T14:33:22;8.37;;;1.83;;
71360;SDS011;59166;48.908;1.870;2023-07-30T14:38:23;7.20;;;1.77;;
71360;SDS011;59166;48.908;1.870;2023-07-30T14:43:26;8.60;;;2.20;;
71360;SDS011;59166;48.908;1.870;2023-07-30T14:48:27;6.75;;;1.70;;
71360;SDS011;59166;48.908;1.870;2023-07-30T14:53:27;7.28;;;2.05;;
71360;SDS011;59166;48.908;1.870;2023-07-30T14:58:30;7.63;;;2.20;;
71360;SDS011;59166;48.908;1.870;2023-07-30T15:03:31;8.70;;;1.98;;
71360;SDS011;59166;48.908;1.870;2023-07-30T15:08:31;10.67;;;2.37;;
71360;SDS011;59166;48.908;1.870;2023-07-30T15:13:34;7.38;;;2.10;;
71360;SDS011;59166;48.908;1.870;2023-07-30T15:18:34;9.93;;;2.30;;
71360;SDS011;59166;48.908;1.870;2023-07-30T15:23:35;9.15;;;2.28;;
71360;SDS011;59166;48.908;1.870;2023-07-30T15:28:38;7.93;;;2.10;;
71360;SDS011;59166;48.908;1.870;2023-07-30T15:33:40;10.18;;;2.13;;
71360;SDS011;59166;48.908;1.870;2023-07-30T15:38:41;9.98;;;2.50;;
71360;SDS011;59166;48.908;1.870;2023-07-30T15:43:43;11.70;;;2.87;;
71360;SDS011;59166;48.908;1.870;2023-07-30T15:48:44;8.55;;;2.20;;
71360;SDS011;59166;48.908;1.870;2023-07-30T15:53:45;7.83;;;1.97;;
71360;SDS011;59166;48.908;1.870;2023-07-30T15:58:47;7.60;;;2.17;;
71360;SDS011;59166;48.908;1.870;2023-07-30T16:03:48;13.03;;;3.83;;
71360;SDS011;59166;48.908;1.870;2023-07-30T16:08:48;9.52;;;2.50;;
71360;SDS011;59166;48.908;1.870;2023-07-30T16:13:51;10.63;;;2.03;;
71360;SDS011;59166;48.908;1.870;2023-07-30T16:18:51;9.05;;;2.20;;
71360;SDS011;59166;48.908;1.870;2023-07-30T16:23:52;7.50;;;2.00;;
71360;SDS011;59166;48.908;1.870;2023-07-30T16:28:55;9.68;;;2.08;;
71360;SDS011;59166;48.908;1.870;2023-07-30T16:33:55;7.57;;;2.17;;
71360;SDS011;59166;48.908;1.870;2023-07-30T16:38:56;8.95;;;2.13;;
71360;SDS011;59166;48.908;1.870;2023-07-30T16:43:58;8.13;;;2.20;;
71360;SDS011;59166;48.908;1.870;2023-07-30T16:48:59;7.50;;;2.00;;
71360;SDS011;59166;48.908;1.870;2023-07-30T16:54:00;9.18;;;1.90;;
71360;SDS011;59166;48.908;1.870;2023-07-30T16:59:02;8.13;;;2.23;;
71360;SDS011;59166;48.908;1.870;2023-07-30T17:04:03;6.40;;;1.70;;
71360;SDS011;59166;48.908;1.870;2023-07-30T17:09:04;5.80;;;1.90;;
71360;SDS011;59166;48.908;1.870;2023-07-30T17:14:06;5.95;;;1.65;;
71360;SDS011;59166;48.908;1.870;2023-07-30T17:19:07;6.93;;;1.80;;
71360;SDS011;59166;48.908;1.870;2023-07-30T17:24:07;8.02;;;2.20;;
71360;SDS011;59166;48.908;1.870;2023-07-30T17:29:09;7.33;;;1.70;;
71360;SDS011;59166;48.908;1.870;2023-07-30T17:34:10;8.82;;;2.10;;
71360;SDS011;59166;48.908;1.870;2023-07-30T17:39:11;8.93;;;2.53;;
71360;SDS011;59166;48.908;1.870;2023-07-30T17:44:13;9.80;;;2.10;;
71360;SDS011;59166;48.908;1.870;2023-07-30T17:49:13;6.47;;;1.67;;
71360;SDS011;59166;48.908;1.870;2023-07-30T17:54:14;7.38;;;2.05;;
71360;SDS011;59166;48.908;1.870;2023-07-30T17:59:16;7.87;;;1.77;;
71360;SDS011;59166;48.908;1.870;2023-07-30T18:04:17;8.33;;;2.00;;
71360;SDS011;59166;48.908;1.870;2023-07-30T18:09:17;6.40;;;1.73;;
71360;SDS011;59166;48.908;1.870;2023-07-30T18:14:19;8.20;;;1.90;;
71360;SDS011;59166;48.908;1.870;2023-07-30T18:19:20;6.30;;;1.90;;
71360;SDS011;59166;48.908;1.870;2023-07-30T18:24:20;7.50;;;1.80;;
71360;SDS011;59166;48.908;1.870;2023-07-30T18:29:23;7.53;;;1.73;;
71360;SDS011;59166;48.908;1.870;2023-07-30T18:34:23;8.02;;;2.15;;
71360;SDS011;59166;48.908;1.870;2023-07-30T18:39:24;11.13;;;2.50;;
71360;SDS011;59166;48.908;1.870;2023-07-30T18:44:26;8.05;;;2.10;;
71360;SDS011;59166;48.908;1.870;2023-07-30T18:49:27;6.50;;;1.90;;
71360;SDS011;59166;48.908;1.870;2023-07-30T18:54:28;6.72;;;2.20;;
71360;SDS011;59166;48.908;1.870;2023-07-30T18:59:30;8.00;;;2.00;;
71360;SDS011;59166;48.908;1.870;2023-07-30T19:04:31;7.40;;;2.08;;
71360;SDS011;59166;48.908;1.870;2023-07-30T19:09:31;7.77;;;1.90;;
71360;SDS011;59166;48.908;1.870;2023-07-30T19:14:34;8.13;;;2.30;;
71360;SDS011;59166;48.908;1.870;2023-07-30T19:19:35;7.33;;;2.17;;
71360;SDS011;59166;48.908;1.870;2023-07-30T19:24:35;9.68;;;2.63;;
71360;SDS011;59166;48.908;1.870;2023-07-30T19:29:37;8.87;;;2.67;;
71360;SDS011;59166;48.908;1.870;2023-07-30T19:34:38;9.57;;;2.87;;
71360;SDS011;59166;48.908;1.870;2023-07-30T19:39:38;9.10;;;2.63;;
71360;SDS011;59166;48.908;1.870;2023-07-30T19:44:40;9.33;;;2.60;;
71360;SDS011;59166;48.908;1.870;2023-07-30T19:49:41;11.27;;;3.75;;
71360;SDS011;59166;48.908;1.870;2023-07-30T19:54:42;11.83;;;4.10;;
71360;SDS011;59166;48.908;1.870;2023-07-30T19:59:44;13.23;;;5.37;;
71360;SDS011;59166;48.908;1.870;2023-07-30T20:04:44;9.80;;;3.50;;
71360;SDS011;59166;48.908;1.870;2023-07-30T20:09:45;11.07;;;2.83;;
71360;SDS011;59166;48.908;1.870;2023-07-30T20:14:47;9.55;;;3.08;;
71360;SDS011;59166;48.908;1.870;2023-07-30T20:19:47;7.77;;;2.40;;
71360;SDS011;59166;48.908;1.870;2023-07-30T20:24:48;9.98;;;2.42;;
71360;SDS011;59166;48.908;1.870;2023-07-30T20:29:50;7.07;;;2.30;;
71360;SDS011;59166;48.908;1.870;2023-07-30T20:34:50;8.30;;;2.10;;
71360;SDS011;59166;48.908;1.870;2023-07-30T20:39:51;6.88;;;2.22;;
71360;SDS011;59166;48.908;1.870;2023-07-30T20:44:53;7.30;;;2.17;;
71360;SDS011;59166;48.908;1.870;2023-07-30T20:49:54;7.90;;;2.00;;
71360;SDS011;59166;48.908;1.870;2023-07-30T20:54:55;7.50;;;2.07;;
71360;SDS011;59166;48.908;1.870;2023-07-30T20:59:57;8.07;;;2.15;;
71360;SDS011;59166;48.908;1.870;2023-07-30T21:04:58;6.80;;;2.00;;
71360;SDS011;59166;48.908;1.870;2023-07-30T21:09:58;6.60;;;1.90;;
71360;SDS011;59166;48.908;1.870;2023-07-30T21:15:00;6.17;;;1.87;;
71360;SDS011;59166;48.908;1.870;2023-07-30T21:20:01;6.35;;;1.90;;
71360;SDS011;59166;48.908;1.870;2023-07-30T21:25:02;6.07;;;1.93;;
71360;SDS011;59166;48.908;1.870;2023-07-30T21:30:05;6.28;;;1.88;;
71360;SDS011;59166;48.908;1.870;2023-07-30T21:35:07;7.22;;;2.30;;
71360;SDS011;59166;48.908;1.870;2023-07-30T21:40:08;5.83;;;1.90;;
71360;SDS011;59166;48.908;1.870;2023-07-30T21:45:11;5.57;;;1.70;;
71360;SDS011;59166;48.908;1.870;2023-07-30T21:50:12;6.25;;;1.83;;
71360;SDS011;59166;48.908;1.870;2023-07-30T21:55:12;6.33;;;1.57;;
71360;SDS011;59166;48.908;1.870;2023-07-30T22:00:14;7.50;;;1.80;;
71360;SDS011;59166;48.908;1.870;2023-07-30T22:05:15;6.13;;;1.77;;
71360;SDS011;59166;48.908;1.870;2023-07-30T22:10:16;8.77;;;1.60;;
71360;SDS011;59166;48.908;1.870;2023-07-30T22:15:18;5.45;;;1.75;;
71360;SDS011;59166;48.908;1.870;2023-07-30T22:20:19;6.30;;;1.90;;
71360;SDS011;59166;48.908;1.870;2023-07-30T22:25:19;6.53;;;1.77;;
71360;SDS011;59166;48.908;1.870;2023-07-30T22:30:21;4.23;;;1.63;;
71360;SDS011;59166;48.908;1.870;2023-07-30T22:35:22;6.47;;;1.65;;
71360;SDS011;59166;48.908;1.870;2023-07-30T22:40:23;6.30;;;1.87;;
71360;SDS011;59166;48.908;1.870;2023-07-30T22:45:25;6.27;;;1.80;;
71360;SDS011;59166;48.908;1.870;2023-07-30T22:50:25;6.75;;;1.80;;
71360;SDS011;59166;48.908;1.870;2023-07-30T22:55:26;7.13;;;1.70;;
71360;SDS011;59166;48.908;1.870;2023-07-30T23:00:28;6.47;;;1.80;;
71360;SDS011;59166;48.908;1.870;2023-07-30T23:05:29;6.77;;;2.00;;
71360;SDS011;59166;48.908;1.870;2023-07-30T23:10:29;7.65;;;1.90;;
71360;SDS011;59166;48.908;1.870;2023-07-30T23:15:31;7.57;;;2.17;;
71360;SDS011;59166;48.908;1.870;2023-07-30T23:20:32;6.32;;;1.90;;
71360;SDS011;59166;48.908;1.870;2023-07-30T23:25:33;7.67;;;2.30;;
71360;SDS011;59166;48.908;1.870;2023-07-30T23:30:37;7.82;;;2.10;;
71360;SDS011;59166;48.908;1.870;2023-07-30T23:35:37;8.27;;;2.30;;
71360;SDS011;59166;48.908;1.870;2023-07-30T23:40:38;8.80;;;2.10;;
71360;SDS011;59166;48.908;1.870;2023-07-30T23:45:41;11.33;;;2.30;;
71360;SDS011;59166;48.908;1.870;2023-07-30T23:50:41;8.23;;;2.10;;
71360;SDS011;59166;48.908;1.870;2023-07-30T23:55:42;9.13;;;2.60;;
